sensor_id;sensor_type;location;lat;lon;timestamp;P1;durP1;ratioP1;P2;durP2;ratioP2
1715;SDS011;855;48.824;9.220;2022-08-11T00:01:06;5.30;;;3.10;;
1715;SDS011;855;48.824;9.220;2022-08-11T00:03:41;5.80;;;3.13;;
1715;SDS011;855;48.824;9.220;2022-08-11T00:06:15;6.77;;;3.33;;
1715;SDS011;855;48.824;9.220;2022-08-11T00:08:50;5.23;;;3.07;;
1715;SDS011;855;48.824;9.220;2022-08-11T00:11:18;3.73;;;2.80;;
1715;SDS011;855;48.824;9.220;2022-08-11T00:13:48;4.73;;;2.70;;
1715;SDS011;855;48.824;9.220;2022-08-11T00:16:17;5.47;;;3.10;;
1715;SDS011;855;48.824;9.220;2022-08-11T00:18:46;6.77;;;3.20;;
1715;SDS011;855;48.824;9.220;2022-08-11T00:21:16;5.17;;;2.83;;
1715;SDS011;855;48.824;9.220;2022-08-11T00:23:46;5.10;;;3.50;;
1715;SDS011;855;48.824;9.220;2022-08-11T00:26:19;10.97;;;3.00;;
1715;SDS011;855;48.824;9.220;2022-08-11T00:28:47;7.73;;;3.03;;
1715;SDS011;855;48.824;9.220;2022-08-11T00:31:21;4.17;;;3.40;;
1715;SDS011;855;48.824;9.220;2022-08-11T00:33:51;8.10;;;2.90;;
1715;SDS011;855;48.824;9.220;2022-08-11T00:36:22;4.57;;;3.10;;
1715;SDS011;855;48.824;9.220;2022-08-11T00:38:54;5.73;;;3.50;;
1715;SDS011;855;48.824;9.220;2022-08-11T00:41:30;5.33;;;2.80;;
1715;SDS011;855;48.824;9.220;2022-08-11T00:46:58;5.17;;;3.37;;
1715;SDS011;855;48.824;9.220;2022-08-11T00:49:38;5.03;;;2.90;;
1715;SDS011;855;48.824;9.220;2022-08-11T00:52:25;4.37;;;3.43;;
1715;SDS011;855;48.824;9.220;2022-08-11T00:55:06;12.00;;;3.70;;
1715;SDS011;855;48.824;9.220;2022-08-11T01:01:13;6.17;;;3.13;;
1715;SDS011;855;48.824;9.220;2022-08-11T01:04:10;7.23;;;3.07;;
1715;SDS011;855;48.824;9.220;2022-08-11T01:07:07;4.80;;;3.50;;
1715;SDS011;855;48.824;9.220;2022-08-11T01:09:59;6.63;;;3.53;;
1715;SDS011;855;48.824;9.220;2022-08-11T01:13:01;5.83;;;3.50;;
1715;SDS011;855;48.824;9.220;2022-08-11T01:15:44;7.73;;;3.90;;
1715;SDS011;855;48.824;9.220;2022-08-11T01:21:42;4.33;;;3.43;;
1715;SDS011;855;48.824;9.220;2022-08-11T01:24:50;5.47;;;3.57;;
1715;SDS011;855;48.824;9.220;2022-08-11T01:30:51;5.67;;;3.80;;
1715;SDS011;855;48.824;9.220;2022-08-11T01:36:50;9.17;;;4.03;;
1715;SDS011;855;48.824;9.220;2022-08-11T01:39:52;5.27;;;3.33;;
1715;SDS011;855;48.824;9.220;2022-08-11T01:46:20;12.57;;;3.30;;
1715;SDS011;855;48.824;9.220;2022-08-11T01:48:53;5.77;;;3.93;;
1715;SDS011;855;48.824;9.220;2022-08-11T01:51:32;5.23;;;3.90;;
1715;SDS011;855;48.824;9.220;2022-08-11T01:54:17;8.77;;;4.70;;
1715;SDS011;855;48.824;9.220;2022-08-11T01:56:52;9.30;;;3.80;;
1715;SDS011;855;48.824;9.220;2022-08-11T01:59:34;5.67;;;3.70;;
1715;SDS011;855;48.824;9.220;2022-08-11T02:02:25;5.70;;;3.90;;
1715;SDS011;855;48.824;9.220;2022-08-11T02:05:20;8.90;;;3.90;;
1715;SDS011;855;48.824;9.220;2022-08-11T02:07:54;5.87;;;4.20;;
1715;SDS011;855;48.824;9.220;2022-08-11T02:10:29;5.30;;;3.57;;
1715;SDS011;855;48.824;9.220;2022-08-11T02:13:21;11.57;;;4.30;;
1715;SDS011;855;48.824;9.220;2022-08-11T02:16:02;5.70;;;3.77;;
1715;SDS011;855;48.824;9.220;2022-08-11T02:18:35;6.00;;;3.67;;
1715;SDS011;855;48.824;9.220;2022-08-11T02:21:25;10.80;;;4.30;;
1715;SDS011;855;48.824;9.220;2022-08-11T02:24:13;9.27;;;3.73;;
1715;SDS011;855;48.824;9.220;2022-08-11T02:26:48;6.53;;;4.10;;
1715;SDS011;855;48.824;9.220;2022-08-11T02:29:27;8.37;;;3.83;;
1715;SDS011;855;48.824;9.220;2022-08-11T02:31:59;11.83;;;3.10;;
1715;SDS011;855;48.824;9.220;2022-08-11T02:34:51;5.63;;;3.77;;
1715;SDS011;855;48.824;9.220;2022-08-11T02:37:26;12.93;;;4.50;;
1715;SDS011;855;48.824;9.220;2022-08-11T02:40:09;8.97;;;4.27;;
1715;SDS011;855;48.824;9.220;2022-08-11T02:42:52;7.10;;;4.13;;
1715;SDS011;855;48.824;9.220;2022-08-11T02:45:30;6.20;;;4.33;;
1715;SDS011;855;48.824;9.220;2022-08-11T02:48:05;5.40;;;3.47;;
1715;SDS011;855;48.824;9.220;2022-08-11T02:51:19;6.10;;;3.90;;
1715;SDS011;855;48.824;9.220;2022-08-11T02:53:56;10.47;;;4.07;;
1715;SDS011;855;48.824;9.220;2022-08-11T02:56:35;6.37;;;4.57;;
1715;SDS011;855;48.824;9.220;2022-08-11T02:59:13;4.77;;;3.70;;
1715;SDS011;855;48.824;9.220;2022-08-11T03:02:08;7.50;;;4.23;;
1715;SDS011;855;48.824;9.220;2022-08-11T03:04:44;6.20;;;3.70;;
1715;SDS011;855;48.824;9.220;2022-08-11T03:07:24;6.27;;;4.10;;
1715;SDS011;855;48.824;9.220;2022-08-11T03:09:59;7.03;;;4.17;;
1715;SDS011;855;48.824;9.220;2022-08-11T03:12:32;8.33;;;3.93;;
1715;SDS011;855;48.824;9.220;2022-08-11T03:15:27;4.60;;;3.30;;
1715;SDS011;855;48.824;9.220;2022-08-11T03:18:27;7.10;;;4.33;;
1715;SDS011;855;48.824;9.220;2022-08-11T03:21:01;9.77;;;4.77;;
1715;SDS011;855;48.824;9.220;2022-08-11T03:23:36;9.23;;;4.27;;
1715;SDS011;855;48.824;9.220;2022-08-11T03:26:12;8.20;;;4.40;;
1715;SDS011;855;48.824;9.220;2022-08-11T03:28:58;6.07;;;3.83;;
1715;SDS011;855;48.824;9.220;2022-08-11T03:31:33;7.40;;;4.20;;
1715;SDS011;855;48.824;9.220;2022-08-11T03:34:07;9.60;;;3.73;;
1715;SDS011;855;48.824;9.220;2022-08-11T03:36:51;5.80;;;4.10;;
1715;SDS011;855;48.824;9.220;2022-08-11T03:39:32;8.93;;;3.90;;
1715;SDS011;855;48.824;9.220;2022-08-11T03:42:12;5.97;;;4.43;;
1715;SDS011;855;48.824;9.220;2022-08-11T03:44:51;5.53;;;4.30;;
1715;SDS011;855;48.824;9.220;2022-08-11T03:50:31;5.70;;;4.13;;
1715;SDS011;855;48.824;9.220;2022-08-11T03:53:13;9.00;;;5.13;;
1715;SDS011;855;48.824;9.220;2022-08-11T03:55:55;7.00;;;4.33;;
1715;SDS011;855;48.824;9.220;2022-08-11T04:05:20;8.70;;;4.47;;
1715;SDS011;855;48.824;9.220;2022-08-11T04:08:19;9.23;;;5.33;;
1715;SDS011;855;48.824;9.220;2022-08-11T04:11:36;10.33;;;5.00;;
1715;SDS011;855;48.824;9.220;2022-08-11T04:21:13;12.30;;;5.33;;
1715;SDS011;855;48.824;9.220;2022-08-11T04:27:11;7.90;;;4.77;;
1715;SDS011;855;48.824;9.220;2022-08-11T04:29:56;11.80;;;5.30;;
1715;SDS011;855;48.824;9.220;2022-08-11T04:32:38;7.17;;;4.73;;
1715;SDS011;855;48.824;9.220;2022-08-11T04:35:33;10.70;;;5.70;;
1715;SDS011;855;48.824;9.220;2022-08-11T04:41:28;7.17;;;4.93;;
1715;SDS011;855;48.824;9.220;2022-08-11T04:44:50;6.87;;;5.27;;
1715;SDS011;855;48.824;9.220;2022-08-11T04:48:04;12.50;;;5.70;;
1715;SDS011;855;48.824;9.220;2022-08-11T04:51:07;11.00;;;5.30;;
1715;SDS011;855;48.824;9.220;2022-08-11T04:54:30;23.00;;;6.40;;
1715;SDS011;855;48.824;9.220;2022-08-11T04:57:46;6.87;;;5.13;;
1715;SDS011;855;48.824;9.220;2022-08-11T05:00:43;15.70;;;6.63;;
1715;SDS011;855;48.824;9.220;2022-08-11T05:03:42;8.13;;;5.50;;
1715;SDS011;855;48.824;9.220;2022-08-11T05:06:44;10.73;;;4.57;;
1715;SDS011;855;48.824;9.220;2022-08-11T05:09:40;6.40;;;4.53;;
1715;SDS011;855;48.824;9.220;2022-08-11T05:15:12;6.63;;;4.70;;
1715;SDS011;855;48.824;9.220;2022-08-11T05:18:04;10.80;;;4.60;;
1715;SDS011;855;48.824;9.220;2022-08-11T05:21:05;9.83;;;4.10;;
1715;SDS011;855;48.824;9.220;2022-08-11T05:23:55;4.87;;;3.23;;
1715;SDS011;855;48.824;9.220;2022-08-11T05:26:46;4.80;;;3.67;;
1715;SDS011;855;48.824;9.220;2022-08-11T05:29:38;13.40;;;4.20;;
1715;SDS011;855;48.824;9.220;2022-08-11T05:32:26;7.07;;;3.87;;
1715;SDS011;855;48.824;9.220;2022-08-11T05:35:15;5.27;;;3.13;;
1715;SDS011;855;48.824;9.220;2022-08-11T05:37:50;10.03;;;4.03;;
1715;SDS011;855;48.824;9.220;2022-08-11T05:40:36;7.33;;;3.57;;
1715;SDS011;855;48.824;9.220;2022-08-11T05:43:21;5.43;;;3.90;;
1715;SDS011;855;48.824;9.220;2022-08-11T05:46:07;8.63;;;3.90;;
1715;SDS011;855;48.824;9.220;2022-08-11T05:48:53;6.90;;;4.10;;
1715;SDS011;855;48.824;9.220;2022-08-11T05:51:38;8.07;;;3.40;;
1715;SDS011;855;48.824;9.220;2022-08-11T05:54:25;7.57;;;4.23;;
1715;SDS011;855;48.824;9.220;2022-08-11T05:57:16;6.77;;;3.43;;
1715;SDS011;855;48.824;9.220;2022-08-11T05:59:45;11.70;;;4.47;;
1715;SDS011;855;48.824;9.220;2022-08-11T06:02:13;5.97;;;4.00;;
1715;SDS011;855;48.824;9.220;2022-08-11T06:04:42;9.93;;;4.10;;
1715;SDS011;855;48.824;9.220;2022-08-11T06:07:10;7.00;;;3.73;;
1715;SDS011;855;48.824;9.220;2022-08-11T06:09:46;5.77;;;3.50;;
1715;SDS011;855;48.824;9.220;2022-08-11T06:12:15;9.90;;;3.40;;
1715;SDS011;855;48.824;9.220;2022-08-11T06:14:44;22.10;;;3.70;;
1715;SDS011;855;48.824;9.220;2022-08-11T06:17:12;7.70;;;3.63;;
1715;SDS011;855;48.824;9.220;2022-08-11T06:19:48;7.50;;;3.70;;
1715;SDS011;855;48.824;9.220;2022-08-11T06:22:21;8.50;;;3.97;;
1715;SDS011;855;48.824;9.220;2022-08-11T06:24:50;8.40;;;3.90;;
1715;SDS011;855;48.824;9.220;2022-08-11T06:27:21;9.60;;;3.87;;
1715;SDS011;855;48.824;9.220;2022-08-11T06:29:51;5.50;;;3.70;;
1715;SDS011;855;48.824;9.220;2022-08-11T06:32:19;9.63;;;3.60;;
1715;SDS011;855;48.824;9.220;2022-08-11T06:35:02;8.73;;;3.87;;
1715;SDS011;855;48.824;9.220;2022-08-11T06:37:43;9.40;;;3.63;;
1715;SDS011;855;48.824;9.220;2022-08-11T06:40:16;23.73;;;4.73;;
1715;SDS011;855;48.824;9.220;2022-08-11T06:42:56;6.87;;;3.80;;
1715;SDS011;855;48.824;9.220;2022-08-11T06:45:29;5.30;;;3.47;;
1715;SDS011;855;48.824;9.220;2022-08-11T06:47:58;6.53;;;3.40;;
1715;SDS011;855;48.824;9.220;2022-08-11T06:50:28;6.27;;;3.50;;
1715;SDS011;855;48.824;9.220;2022-08-11T06:53:14;6.90;;;4.37;;
1715;SDS011;855;48.824;9.220;2022-08-11T06:55:44;8.33;;;3.40;;
1715;SDS011;855;48.824;9.220;2022-08-11T06:58:31;5.37;;;3.10;;
1715;SDS011;855;48.824;9.220;2022-08-11T07:01:20;8.87;;;3.30;;
1715;SDS011;855;48.824;9.220;2022-08-11T07:04:12;7.67;;;3.10;;
1715;SDS011;855;48.824;9.220;2022-08-11T07:06:54;7.50;;;3.57;;
1715;SDS011;855;48.824;9.220;2022-08-11T07:09:58;6.03;;;3.57;;
1715;SDS011;855;48.824;9.220;2022-08-11T07:12:58;5.80;;;3.60;;
1715;SDS011;855;48.824;9.220;2022-08-11T07:15:46;7.30;;;4.20;;
1715;SDS011;855;48.824;9.220;2022-08-11T07:18:19;5.83;;;3.30;;
1715;SDS011;855;48.824;9.220;2022-08-11T07:21:06;5.50;;;3.10;;
1715;SDS011;855;48.824;9.220;2022-08-11T07:23:55;11.03;;;3.57;;
1715;SDS011;855;48.824;9.220;2022-08-11T07:26:44;5.20;;;3.83;;
1715;SDS011;855;48.824;9.220;2022-08-11T07:29:33;10.00;;;3.93;;
1715;SDS011;855;48.824;9.220;2022-08-11T07:32:07;4.77;;;3.70;;
1715;SDS011;855;48.824;9.220;2022-08-11T07:34:43;5.40;;;3.07;;
1715;SDS011;855;48.824;9.220;2022-08-11T07:37:14;3.27;;;2.80;;
1715;SDS011;855;48.824;9.220;2022-08-11T07:39:45;7.53;;;3.40;;
1715;SDS011;855;48.824;9.220;2022-08-11T07:42:14;5.50;;;3.20;;
1715;SDS011;855;48.824;9.220;2022-08-11T07:44:45;4.93;;;3.60;;
1715;SDS011;855;48.824;9.220;2022-08-11T07:47:31;4.40;;;3.20;;
1715;SDS011;855;48.824;9.220;2022-08-11T07:50:17;4.80;;;3.30;;
1715;SDS011;855;48.824;9.220;2022-08-11T07:53:02;5.30;;;3.50;;
1715;SDS011;855;48.824;9.220;2022-08-11T07:55:31;6.20;;;3.10;;
1715;SDS011;855;48.824;9.220;2022-08-11T07:57:59;5.43;;;4.10;;
1715;SDS011;855;48.824;9.220;2022-08-11T08:00:44;5.20;;;3.53;;
1715;SDS011;855;48.824;9.220;2022-08-11T08:03:31;5.50;;;3.80;;
1715;SDS011;855;48.824;9.220;2022-08-11T08:06:17;11.60;;;3.63;;
1715;SDS011;855;48.824;9.220;2022-08-11T08:09:02;12.43;;;3.90;;
1715;SDS011;855;48.824;9.220;2022-08-11T08:11:50;5.43;;;3.40;;
1715;SDS011;855;48.824;9.220;2022-08-11T08:14:35;14.83;;;2.77;;
1715;SDS011;855;48.824;9.220;2022-08-11T08:17:20;9.37;;;3.67;;
1715;SDS011;855;48.824;9.220;2022-08-11T08:20:07;9.57;;;3.67;;
1715;SDS011;855;48.824;9.220;2022-08-11T08:22:38;4.83;;;3.10;;
1715;SDS011;855;48.824;9.220;2022-08-11T08:25:06;5.80;;;2.70;;
1715;SDS011;855;48.824;9.220;2022-08-11T08:27:35;8.03;;;3.10;;
1715;SDS011;855;48.824;9.220;2022-08-11T08:30:04;5.73;;;3.80;;
1715;SDS011;855;48.824;9.220;2022-08-11T08:32:50;6.23;;;3.20;;
1715;SDS011;855;48.824;9.220;2022-08-11T08:35:17;5.03;;;2.80;;
1715;SDS011;855;48.824;9.220;2022-08-11T08:37:45;4.73;;;2.73;;
1715;SDS011;855;48.824;9.220;2022-08-11T08:40:16;7.90;;;3.93;;
1715;SDS011;855;48.824;9.220;2022-08-11T08:42:46;5.43;;;3.50;;
1715;SDS011;855;48.824;9.220;2022-08-11T08:45:17;5.30;;;3.20;;
1715;SDS011;855;48.824;9.220;2022-08-11T08:47:45;6.67;;;3.00;;
1715;SDS011;855;48.824;9.220;2022-08-11T08:50:17;4.00;;;3.17;;
1715;SDS011;855;48.824;9.220;2022-08-11T08:52:49;10.27;;;3.27;;
1715;SDS011;855;48.824;9.220;2022-08-11T08:55:19;3.30;;;2.77;;
1715;SDS011;855;48.824;9.220;2022-08-11T08:57:49;3.20;;;2.80;;
1715;SDS011;855;48.824;9.220;2022-08-11T09:00:17;3.00;;;2.63;;
1715;SDS011;855;48.824;9.220;2022-08-11T09:02:45;4.67;;;2.37;;
1715;SDS011;855;48.824;9.220;2022-08-11T09:05:13;4.13;;;2.80;;
1715;SDS011;855;48.824;9.220;2022-08-11T09:07:43;8.30;;;3.17;;
1715;SDS011;855;48.824;9.220;2022-08-11T09:10:12;4.60;;;2.70;;
1715;SDS011;855;48.824;9.220;2022-08-11T09:12:41;6.73;;;3.00;;
1715;SDS011;855;48.824;9.220;2022-08-11T09:15:11;4.90;;;3.47;;
1715;SDS011;855;48.824;9.220;2022-08-11T09:17:41;5.73;;;2.90;;
1715;SDS011;855;48.824;9.220;2022-08-11T09:20:11;5.20;;;3.03;;
1715;SDS011;855;48.824;9.220;2022-08-11T09:22:41;2.63;;;2.00;;
1715;SDS011;855;48.824;9.220;2022-08-11T09:25:27;8.00;;;2.23;;
1715;SDS011;855;48.824;9.220;2022-08-11T09:28:16;2.83;;;2.10;;
1715;SDS011;855;48.824;9.220;2022-08-11T09:30:47;4.20;;;2.00;;
1715;SDS011;855;48.824;9.220;2022-08-11T09:33:17;3.47;;;2.00;;
1715;SDS011;855;48.824;9.220;2022-08-11T09:35:45;4.30;;;2.17;;
1715;SDS011;855;48.824;9.220;2022-08-11T09:38:15;5.60;;;2.70;;
1715;SDS011;855;48.824;9.220;2022-08-11T09:41:00;4.80;;;2.80;;
1715;SDS011;855;48.824;9.220;2022-08-11T09:43:30;4.23;;;2.67;;
1715;SDS011;855;48.824;9.220;2022-08-11T09:46:18;3.30;;;2.50;;
1715;SDS011;855;48.824;9.220;2022-08-11T09:48:50;2.80;;;1.67;;
1715;SDS011;855;48.824;9.220;2022-08-11T09:51:21;2.87;;;2.00;;
1715;SDS011;855;48.824;9.220;2022-08-11T09:53:48;5.93;;;2.47;;
1715;SDS011;855;48.824;9.220;2022-08-11T09:56:17;5.50;;;2.80;;
1715;SDS011;855;48.824;9.220;2022-08-11T09:59:04;3.30;;;2.20;;
1715;SDS011;855;48.824;9.220;2022-08-11T10:01:34;6.77;;;2.43;;
1715;SDS011;855;48.824;9.220;2022-08-11T10:04:07;7.50;;;2.37;;
1715;SDS011;855;48.824;9.220;2022-08-11T10:06:40;6.83;;;2.50;;
1715;SDS011;855;48.824;9.220;2022-08-11T10:09:26;5.53;;;1.97;;
1715;SDS011;855;48.824;9.220;2022-08-11T10:11:58;4.53;;;2.60;;
1715;SDS011;855;48.824;9.220;2022-08-11T10:14:28;5.43;;;2.50;;
1715;SDS011;855;48.824;9.220;2022-08-11T10:17:17;5.40;;;2.33;;
1715;SDS011;855;48.824;9.220;2022-08-11T10:19:47;5.27;;;2.37;;
1715;SDS011;855;48.824;9.220;2022-08-11T10:22:15;3.43;;;2.40;;
1715;SDS011;855;48.824;9.220;2022-08-11T10:25:02;3.70;;;1.90;;
1715;SDS011;855;48.824;9.220;2022-08-11T10:27:47;4.40;;;1.90;;
1715;SDS011;855;48.824;9.220;2022-08-11T10:30:22;7.60;;;2.57;;
1715;SDS011;855;48.824;9.220;2022-08-11T10:33:10;3.73;;;2.57;;
1715;SDS011;855;48.824;9.220;2022-08-11T10:35:55;6.90;;;2.60;;
1715;SDS011;855;48.824;9.220;2022-08-11T10:38:23;3.77;;;2.10;;
1715;SDS011;855;48.824;9.220;2022-08-11T10:40:51;4.10;;;2.37;;
1715;SDS011;855;48.824;9.220;2022-08-11T10:43:34;4.63;;;2.40;;
1715;SDS011;855;48.824;9.220;2022-08-11T10:46:03;3.10;;;2.33;;
1715;SDS011;855;48.824;9.220;2022-08-11T10:48:53;4.10;;;2.03;;
1715;SDS011;855;48.824;9.220;2022-08-11T10:51:21;5.30;;;2.37;;
1715;SDS011;855;48.824;9.220;2022-08-11T10:54:06;3.17;;;2.40;;
1715;SDS011;855;48.824;9.220;2022-08-11T10:56:51;4.30;;;2.30;;
1715;SDS011;855;48.824;9.220;2022-08-11T10:59:37;3.30;;;2.53;;
1715;SDS011;855;48.824;9.220;2022-08-11T11:02:06;10.23;;;2.90;;
1715;SDS011;855;48.824;9.220;2022-08-11T11:04:41;5.00;;;2.10;;
1715;SDS011;855;48.824;9.220;2022-08-11T11:07:23;4.17;;;2.20;;
1715;SDS011;855;48.824;9.220;2022-08-11T11:09:56;5.23;;;2.30;;
1715;SDS011;855;48.824;9.220;2022-08-11T11:12:29;4.47;;;2.10;;
1715;SDS011;855;48.824;9.220;2022-08-11T11:15:16;6.10;;;1.93;;
1715;SDS011;855;48.824;9.220;2022-08-11T11:18:03;4.13;;;2.20;;
1715;SDS011;855;48.824;9.220;2022-08-11T11:20:38;3.20;;;2.23;;
1715;SDS011;855;48.824;9.220;2022-08-11T11:23:07;3.33;;;2.40;;
1715;SDS011;855;48.824;9.220;2022-08-11T11:25:45;5.47;;;2.80;;
1715;SDS011;855;48.824;9.220;2022-08-11T11:28:57;2.50;;;2.30;;
1715;SDS011;855;48.824;9.220;2022-08-11T11:31:43;4.20;;;2.40;;
1715;SDS011;855;48.824;9.220;2022-08-11T11:34:21;5.33;;;2.67;;
1715;SDS011;855;48.824;9.220;2022-08-11T11:37:00;5.93;;;2.20;;
1715;SDS011;855;48.824;9.220;2022-08-11T11:39:29;3.70;;;2.20;;
1715;SDS011;855;48.824;9.220;2022-08-11T11:41:58;6.70;;;2.33;;
1715;SDS011;855;48.824;9.220;2022-08-11T11:44:29;3.03;;;1.83;;
1715;SDS011;855;48.824;9.220;2022-08-11T11:46:57;5.60;;;2.50;;
1715;SDS011;855;48.824;9.220;2022-08-11T11:49:26;5.27;;;2.70;;
1715;SDS011;855;48.824;9.220;2022-08-11T11:51:56;3.77;;;2.40;;
1715;SDS011;855;48.824;9.220;2022-08-11T11:54:26;4.40;;;2.40;;
1715;SDS011;855;48.824;9.220;2022-08-11T11:56:56;1.83;;;1.73;;
1715;SDS011;855;48.824;9.220;2022-08-11T11:59:45;3.40;;;2.07;;
1715;SDS011;855;48.824;9.220;2022-08-11T12:02:32;3.90;;;2.60;;
1715;SDS011;855;48.824;9.220;2022-08-11T12:05:01;7.93;;;2.80;;
1715;SDS011;855;48.824;9.220;2022-08-11T12:07:28;3.67;;;2.33;;
1715;SDS011;855;48.824;9.220;2022-08-11T12:10:15;2.97;;;1.70;;
1715;SDS011;855;48.824;9.220;2022-08-11T12:12:43;4.50;;;2.20;;
1715;SDS011;855;48.824;9.220;2022-08-11T12:15:28;2.90;;;2.20;;
1715;SDS011;855;48.824;9.220;2022-08-11T12:17:56;5.00;;;2.60;;
1715;SDS011;855;48.824;9.220;2022-08-11T12:20:23;5.23;;;2.23;;
1715;SDS011;855;48.824;9.220;2022-08-11T12:22:50;6.60;;;1.70;;
1715;SDS011;855;48.824;9.220;2022-08-11T12:25:38;5.20;;;2.00;;
1715;SDS011;855;48.824;9.220;2022-08-11T12:28:23;4.47;;;2.47;;
1715;SDS011;855;48.824;9.220;2022-08-11T12:30:51;3.30;;;2.10;;
1715;SDS011;855;48.824;9.220;2022-08-11T12:33:19;3.17;;;2.10;;
1715;SDS011;855;48.824;9.220;2022-08-11T12:35:47;2.00;;;1.67;;
1715;SDS011;855;48.824;9.220;2022-08-11T12:38:21;3.60;;;2.00;;
1715;SDS011;855;48.824;9.220;2022-08-11T12:40:49;2.87;;;2.00;;
1715;SDS011;855;48.824;9.220;2022-08-11T12:43:35;5.73;;;2.07;;
1715;SDS011;855;48.824;9.220;2022-08-11T12:46:21;4.50;;;2.23;;
1715;SDS011;855;48.824;9.220;2022-08-11T12:48:53;2.30;;;2.10;;
1715;SDS011;855;48.824;9.220;2022-08-11T12:51:46;4.63;;;2.30;;
1715;SDS011;855;48.824;9.220;2022-08-11T12:54:24;2.50;;;1.60;;
1715;SDS011;855;48.824;9.220;2022-08-11T12:56:58;5.20;;;2.10;;
1715;SDS011;855;48.824;9.220;2022-08-11T12:59:44;6.40;;;2.20;;
1715;SDS011;855;48.824;9.220;2022-08-11T13:02:29;2.80;;;1.90;;
1715;SDS011;855;48.824;9.220;2022-08-11T13:05:14;2.50;;;1.73;;
1715;SDS011;855;48.824;9.220;2022-08-11T13:07:43;5.63;;;2.40;;
1715;SDS011;855;48.824;9.220;2022-08-11T13:10:12;3.30;;;2.40;;
1715;SDS011;855;48.824;9.220;2022-08-11T13:13:02;2.50;;;1.70;;
1715;SDS011;855;48.824;9.220;2022-08-11T13:15:28;3.37;;;1.67;;
1715;SDS011;855;48.824;9.220;2022-08-11T13:17:56;2.50;;;1.97;;
1715;SDS011;855;48.824;9.220;2022-08-11T13:20:24;5.60;;;2.67;;
1715;SDS011;855;48.824;9.220;2022-08-11T13:22:52;4.43;;;2.33;;
1715;SDS011;855;48.824;9.220;2022-08-11T13:25:21;2.80;;;1.80;;
1715;SDS011;855;48.824;9.220;2022-08-11T13:27:50;3.20;;;1.80;;
1715;SDS011;855;48.824;9.220;2022-08-11T13:30:24;1.70;;;1.43;;
1715;SDS011;855;48.824;9.220;2022-08-11T13:33:11;2.00;;;1.57;;
1715;SDS011;855;48.824;9.220;2022-08-11T13:35:38;2.10;;;1.97;;
1715;SDS011;855;48.824;9.220;2022-08-11T13:38:07;3.60;;;2.03;;
1715;SDS011;855;48.824;9.220;2022-08-11T13:40:36;6.63;;;2.30;;
1715;SDS011;855;48.824;9.220;2022-08-11T13:43:03;2.77;;;1.60;;
1715;SDS011;855;48.824;9.220;2022-08-11T13:45:32;4.87;;;1.90;;
1715;SDS011;855;48.824;9.220;2022-08-11T13:48:00;2.80;;;1.60;;
1715;SDS011;855;48.824;9.220;2022-08-11T13:50:31;7.07;;;2.10;;
1715;SDS011;855;48.824;9.220;2022-08-11T13:53:14;2.67;;;1.80;;
1715;SDS011;855;48.824;9.220;2022-08-11T13:55:42;4.63;;;2.20;;
1715;SDS011;855;48.824;9.220;2022-08-11T13:58:10;2.00;;;1.47;;
1715;SDS011;855;48.824;9.220;2022-08-11T14:00:40;3.17;;;1.53;;
1715;SDS011;855;48.824;9.220;2022-08-11T14:03:11;4.10;;;1.80;;
1715;SDS011;855;48.824;9.220;2022-08-11T14:05:39;4.37;;;1.93;;
1715;SDS011;855;48.824;9.220;2022-08-11T14:08:13;2.27;;;1.60;;
1715;SDS011;855;48.824;9.220;2022-08-11T14:10:43;5.07;;;2.00;;
1715;SDS011;855;48.824;9.220;2022-08-11T14:13:32;6.17;;;2.23;;
1715;SDS011;855;48.824;9.220;2022-08-11T14:16:05;3.07;;;1.63;;
1715;SDS011;855;48.824;9.220;2022-08-11T14:18:36;3.20;;;2.10;;
1715;SDS011;855;48.824;9.220;2022-08-11T14:21:09;2.83;;;1.43;;
1715;SDS011;855;48.824;9.220;2022-08-11T14:23:55;3.07;;;1.47;;
1715;SDS011;855;48.824;9.220;2022-08-11T14:26:24;6.87;;;2.47;;
1715;SDS011;855;48.824;9.220;2022-08-11T14:28:52;3.43;;;1.77;;
1715;SDS011;855;48.824;9.220;2022-08-11T14:31:24;1.97;;;1.63;;
1715;SDS011;855;48.824;9.220;2022-08-11T14:33:54;3.67;;;2.10;;
1715;SDS011;855;48.824;9.220;2022-08-11T14:36:22;4.10;;;2.23;;
1715;SDS011;855;48.824;9.220;2022-08-11T14:38:51;2.13;;;1.57;;
1715;SDS011;855;48.824;9.220;2022-08-11T14:41:19;2.03;;;1.93;;
1715;SDS011;855;48.824;9.220;2022-08-11T14:44:05;3.60;;;2.07;;
1715;SDS011;855;48.824;9.220;2022-08-11T14:46:54;3.93;;;2.10;;
1715;SDS011;855;48.824;9.220;2022-08-11T14:49:32;2.60;;;1.90;;
1715;SDS011;855;48.824;9.220;2022-08-11T14:52:02;7.00;;;2.10;;
1715;SDS011;855;48.824;9.220;2022-08-11T14:54:32;2.07;;;1.73;;
1715;SDS011;855;48.824;9.220;2022-08-11T14:57:17;1.80;;;1.70;;
1715;SDS011;855;48.824;9.220;2022-08-11T14:59:47;1.63;;;1.60;;
1715;SDS011;855;48.824;9.220;2022-08-11T15:02:16;10.20;;;1.90;;
1715;SDS011;855;48.824;9.220;2022-08-11T15:05:02;9.13;;;2.00;;
1715;SDS011;855;48.824;9.220;2022-08-11T15:07:31;3.73;;;1.70;;
1715;SDS011;855;48.824;9.220;2022-08-11T15:09:59;5.70;;;1.90;;
1715;SDS011;855;48.824;9.220;2022-08-11T15:12:31;2.60;;;1.93;;
1715;SDS011;855;48.824;9.220;2022-08-11T15:15:00;2.10;;;1.57;;
1715;SDS011;855;48.824;9.220;2022-08-11T15:17:49;2.40;;;1.50;;
1715;SDS011;855;48.824;9.220;2022-08-11T15:20:18;2.73;;;1.90;;
1715;SDS011;855;48.824;9.220;2022-08-11T15:23:04;1.73;;;1.40;;
1715;SDS011;855;48.824;9.220;2022-08-11T15:25:52;3.30;;;1.80;;
1715;SDS011;855;48.824;9.220;2022-08-11T15:28:21;3.73;;;1.70;;
1715;SDS011;855;48.824;9.220;2022-08-11T15:31:07;3.77;;;1.83;;
1715;SDS011;855;48.824;9.220;2022-08-11T15:33:57;4.70;;;2.10;;
1715;SDS011;855;48.824;9.220;2022-08-11T15:36:46;3.30;;;1.77;;
1715;SDS011;855;48.824;9.220;2022-08-11T15:39:31;5.20;;;2.30;;
1715;SDS011;855;48.824;9.220;2022-08-11T15:42:02;2.23;;;1.50;;
1715;SDS011;855;48.824;9.220;2022-08-11T15:44:56;8.30;;;1.83;;
1715;SDS011;855;48.824;9.220;2022-08-11T15:47:47;2.27;;;2.10;;
1715;SDS011;855;48.824;9.220;2022-08-11T15:50:24;7.03;;;1.80;;
1715;SDS011;855;48.824;9.220;2022-08-11T15:52:56;2.13;;;1.67;;
1715;SDS011;855;48.824;9.220;2022-08-11T15:55:25;4.70;;;1.77;;
1715;SDS011;855;48.824;9.220;2022-08-11T15:57:54;3.03;;;2.20;;
1715;SDS011;855;48.824;9.220;2022-08-11T16:00:42;2.23;;;1.60;;
1715;SDS011;855;48.824;9.220;2022-08-11T16:03:29;2.40;;;1.90;;
1715;SDS011;855;48.824;9.220;2022-08-11T16:06:19;6.53;;;1.97;;
1715;SDS011;855;48.824;9.220;2022-08-11T16:08:47;4.43;;;2.20;;
1715;SDS011;855;48.824;9.220;2022-08-11T16:11:15;4.90;;;1.73;;
1715;SDS011;855;48.824;9.220;2022-08-11T16:13:42;3.60;;;2.30;;
1715;SDS011;855;48.824;9.220;2022-08-11T16:16:26;1.80;;;1.70;;
1715;SDS011;855;48.824;9.220;2022-08-11T16:18:54;3.87;;;2.20;;
1715;SDS011;855;48.824;9.220;2022-08-11T16:21:25;3.53;;;1.83;;
1715;SDS011;855;48.824;9.220;2022-08-11T16:23:55;2.60;;;2.17;;
1715;SDS011;855;48.824;9.220;2022-08-11T16:26:24;3.80;;;1.77;;
1715;SDS011;855;48.824;9.220;2022-08-11T16:28:55;10.90;;;2.93;;
1715;SDS011;855;48.824;9.220;2022-08-11T16:31:25;3.40;;;2.30;;
1715;SDS011;855;48.824;9.220;2022-08-11T16:33:54;4.37;;;2.33;;
1715;SDS011;855;48.824;9.220;2022-08-11T16:36:22;3.33;;;2.10;;
1715;SDS011;855;48.824;9.220;2022-08-11T16:39:09;6.57;;;2.00;;
1715;SDS011;855;48.824;9.220;2022-08-11T16:41:44;1.80;;;1.47;;
1715;SDS011;855;48.824;9.220;2022-08-11T16:44:31;1.93;;;1.63;;
1715;SDS011;855;48.824;9.220;2022-08-11T16:47:18;4.97;;;2.20;;
1715;SDS011;855;48.824;9.220;2022-08-11T16:49:49;4.97;;;2.00;;
1715;SDS011;855;48.824;9.220;2022-08-11T16:52:20;2.77;;;1.87;;
1715;SDS011;855;48.824;9.220;2022-08-11T16:54:49;5.20;;;2.10;;
1715;SDS011;855;48.824;9.220;2022-08-11T16:57:17;3.63;;;1.90;;
1715;SDS011;855;48.824;9.220;2022-08-11T17:00:07;2.50;;;1.80;;
1715;SDS011;855;48.824;9.220;2022-08-11T17:02:39;2.93;;;1.87;;
1715;SDS011;855;48.824;9.220;2022-08-11T17:05:27;2.37;;;2.10;;
1715;SDS011;855;48.824;9.220;2022-08-11T17:08:16;4.40;;;2.10;;
1715;SDS011;855;48.824;9.220;2022-08-11T17:11:03;3.20;;;1.80;;
1715;SDS011;855;48.824;9.220;2022-08-11T17:13:51;4.83;;;2.40;;
1715;SDS011;855;48.824;9.220;2022-08-11T17:16:23;5.43;;;1.83;;
1715;SDS011;855;48.824;9.220;2022-08-11T17:18:54;3.40;;;1.80;;
1715;SDS011;855;48.824;9.220;2022-08-11T17:21:25;6.43;;;2.40;;
1715;SDS011;855;48.824;9.220;2022-08-11T17:23:58;5.30;;;1.90;;
1715;SDS011;855;48.824;9.220;2022-08-11T17:26:26;6.17;;;2.10;;